Time;durP1;ratioP1;P1;durP2;ratioP2;P2;SDS_P1;SDS_P2;PMS_P1;PMS_P2;Temp;Humidity;BMP_temperature;BMP_pressure;BME280_temperature;BME280_humidity;BME280_pressure;Samples;Min_cycle;Max_cycle;Signal;HPM_P1;HPM_P2
2022/10/23 00:01:18;;;;;;;;;;;23.00;54.20;;;;;;1568300;74;1596;-57
2022/10/23 00:03:20;;;;;;;;;;;23.10;54.40;;;;;;1576226;74;721;-57
2022/10/23 00:05:21;;;;;;;;;;;23.00;54.20;;;;;;1574995;74;1940;-57
2022/10/23 00:07:23;;;;;;;;;;;23.00;54.20;;;;;;1572691;74;636;-57
2022/10/23 00:09:25;;;;;;;;;;;23.00;54.20;;;;;;1569256;75;780;-57
2022/10/23 00:11:27;;;;;;;;;;;23.00;54.30;;;;;;1562617;74;1098;-56
2022/10/23 00:13:29;;;;;;;;;;;23.00;54.30;;;;;;1568958;75;1000;-56
2022/10/23 00:15:31;;;;;;;;;;;23.00;54.30;;;;;;1573678;74;1741;-57
2022/10/23 00:17:34;;;;;;;;;;;23.00;54.30;;;;;;1541090;76;1295;-57
2022/10/23 00:19:35;;;;;;;;;;;23.00;54.30;;;;;;1570574;74;834;-57
2022/10/23 00:21:38;;;;;;;;;;;23.00;54.30;;;;;;1567583;74;730;-57
2022/10/23 00:23:40;;;;;;;;;;;23.00;54.30;;;;;;1567799;74;705;-56
2022/10/23 00:25:42;;;;;;;;;;;23.00;54.40;;;;;;1567239;74;1938;-57
2022/10/23 00:27:44;;;;;;;;;;;23.00;54.30;;;;;;1558904;74;1544;-57
2022/10/23 00:29:46;;;;;;;;;;;22.90;54.40;;;;;;1567792;74;854;-57
2022/10/23 00:31:47;;;;;;;;;;;23.00;54.40;;;;;;1569313;75;714;-57
2022/10/23 00:33:49;;;;;;;;;;;23.00;54.40;;;;;;1565103;75;818;-57
2022/10/23 00:35:51;;;;;;;;;;;22.90;54.40;;;;;;1563315;75;1131;-56
2022/10/23 00:37:53;;;;;;;;;;;23.00;54.30;;;;;;1560008;75;659;-57
2022/10/23 00:39:55;;;;;;;;;;;23.00;54.30;;;;;;1565335;74;769;-57
2022/10/23 00:41:57;;;;;;;;;;;23.00;54.30;;;;;;1566426;74;1521;-57
2022/10/23 00:44:00;;;;;;;;;;;22.90;54.30;;;;;;1569250;75;784;-57
2022/10/23 00:46:02;;;;;;;;;;;23.00;54.30;;;;;;1569823;75;1923;-57
2022/10/23 00:48:04;;;;;;;;;;;23.00;54.40;;;;;;1567293;75;652;-57
2022/10/23 00:50:06;;;;;;;;;;;23.00;54.30;;;;;;1558258;75;706;-57
2022/10/23 00:52:08;;;;;;;;;;;23.00;54.20;;;;;;1569092;74;812;-57
2022/10/23 00:54:11;;;;;;;;;;;23.00;54.30;;;;;;1563407;74;794;-57
2022/10/23 00:56:13;;;;;;;;;;;23.00;54.30;;;;;;1560814;76;1614;-57
2022/10/23 00:58:17;;;;;;;;;;;22.90;54.40;;;;;;1567495;75;730;-57
2022/10/23 01:00:25;;;;;;;;;;;23.00;54.30;;;;;;1571384;74;1801;-56
2022/10/23 01:02:27;;;;;;;;;;;22.90;54.30;;;;;;1559905;75;733;-57
2022/10/23 01:04:29;;;;;;;;;;;23.00;54.30;;;;;;1567221;74;768;-57
2022/10/23 01:06:33;;;;;;;;;;;23.00;54.30;;;;;;1571684;74;1938;-56
2022/10/23 01:08:36;;;;;;;;;;;23.00;54.30;;;;;;1567836;75;735;-57
2022/10/23 01:10:45;;;;;;;;;;;23.00;54.30;;;;;;1563821;74;1578;-57
2022/10/23 01:12:48;;;;;;;;;;;23.00;54.40;;;;;;1565696;74;810;-56
2022/10/23 01:14:53;;;;;;;;;;;22.90;54.40;;;;;;1563066;74;1829;-57
2022/10/23 01:17:03;;;;;;;;;;;23.00;54.40;;;;;;1550073;74;1595;-57
2022/10/23 01:19:20;;;;;;;;;;;22.90;54.40;;;;;;1563286;74;1698;-57
2022/10/23 01:21:30;;;;;;;;;;;22.90;54.40;;;;;;1561129;74;651;-57
2022/10/23 01:23:36;;;;;;;;;;;22.90;54.40;;;;;;1564826;74;739;-57
2022/10/23 01:25:52;;;;;;;;;;;23.00;54.40;;;;;;1553164;74;1938;-57
2022/10/23 01:27:55;;;;;;;;;;;22.90;54.40;;;;;;1561817;74;777;-56
2022/10/23 01:30:05;;;;;;;;;;;22.90;54.40;;;;;;1555249;74;1641;-57
2022/10/23 01:32:09;;;;;;;;;;;22.90;54.40;;;;;;1554997;74;755;-57
2022/10/23 01:34:12;;;;;;;;;;;22.90;54.40;;;;;;1561281;76;788;-57
2022/10/23 01:36:14;;;;;;;;;;;22.90;54.40;;;;;;1561015;74;1145;-56
2022/10/23 01:38:21;;;;;;;;;;;22.90;54.40;;;;;;1554073;75;1256;-57
2022/10/23 01:40:24;;;;;;;;;;;22.90;54.40;;;;;;1555858;74;1768;-57
2022/10/23 01:42:29;;;;;;;;;;;23.00;54.40;;;;;;1552346;74;756;-57
2022/10/23 01:44:35;;;;;;;;;;;22.90;54.40;;;;;;1560033;74;933;-58
2022/10/23 01:46:37;;;;;;;;;;;22.90;54.40;;;;;;1547608;74;1924;-57
2022/10/23 01:48:39;;;;;;;;;;;22.90;54.50;;;;;;1560773;74;747;-57
2022/10/23 01:50:41;;;;;;;;;;;22.80;54.40;;;;;;1562983;74;690;-57
2022/10/23 01:52:43;;;;;;;;;;;22.90;54.50;;;;;;1560703;74;1534;-57
2022/10/23 01:54:45;;;;;;;;;;;22.90;54.50;;;;;;1570224;74;743;-57
2022/10/23 01:56:47;;;;;;;;;;;22.90;54.50;;;;;;1560212;74;1118;-57
2022/10/23 01:58:50;;;;;;;;;;;22.90;54.40;;;;;;1560562;74;733;-57
2022/10/23 02:00:52;;;;;;;;;;;22.90;54.40;;;;;;1560164;74;816;-57
2022/10/23 02:02:54;;;;;;;;;;;22.90;54.40;;;;;;1565074;74;856;-57
2022/10/23 02:04:57;;;;;;;;;;;22.90;54.50;;;;;;1562390;74;905;-57
2022/10/23 02:06:58;;;;;;;;;;;22.80;54.50;;;;;;1524922;76;1922;-57
2022/10/23 02:09:00;;;;;;;;;;;22.90;54.60;;;;;;1545472;74;780;-57
2022/10/23 02:11:07;;;;;;;;;;;22.90;54.50;;;;;;1551437;74;712;-57
2022/10/23 02:13:10;;;;;;;;;;;22.90;54.50;;;;;;1557972;74;812;-57
2022/10/23 02:15:13;;;;;;;;;;;22.90;54.50;;;;;;1559562;74;1835;-57
2022/10/23 02:17:17;;;;;;;;;;;22.90;54.60;;;;;;1550827;74;1118;-57
2022/10/23 02:19:20;;;;;;;;;;;22.90;54.50;;;;;;1557431;74;1909;-57
2022/10/23 02:21:26;;;;;;;;;;;22.90;54.50;;;;;;1565004;74;1589;-57
2022/10/23 02:23:30;;;;;;;;;;;22.80;54.40;;;;;;1555962;74;646;-57
2022/10/23 02:25:39;;;;;;;;;;;22.90;54.50;;;;;;1559678;74;1938;-57
2022/10/23 02:27:42;;;;;;;;;;;22.90;54.50;;;;;;1543210;75;554;-57
2022/10/23 02:29:46;;;;;;;;;;;22.90;54.50;;;;;;1549833;74;683;-57
2022/10/23 02:31:47;;;;;;;;;;;22.90;54.50;;;;;;1559640;75;1764;-57
2022/10/23 02:33:49;;;;;;;;;;;22.90;54.40;;;;;;1560881;74;758;-57
2022/10/23 02:35:51;;;;;;;;;;;22.90;54.40;;;;;;1563872;74;1623;-58
2022/10/23 02:37:54;;;;;;;;;;;22.90;54.40;;;;;;1554277;74;719;-57
2022/10/23 02:39:55;;;;;;;;;;;22.90;54.40;;;;;;1562282;75;640;-57
2022/10/23 02:41:59;;;;;;;;;;;22.90;54.40;;;;;;1562461;74;728;-58
2022/10/23 02:44:17;;;;;;;;;;;22.90;54.40;;;;;;1564692;74;1939;-57
2022/10/23 02:46:27;;;;;;;;;;;22.90;54.40;;;;;;1552666;74;1944;-57
2022/10/23 02:48:33;;;;;;;;;;;22.90;54.40;;;;;;1555382;74;1792;-56
2022/10/23 02:50:45;;;;;;;;;;;22.90;54.40;;;;;;1546908;74;780;-56
2022/10/23 02:53:05;;;;;;;;;;;22.90;54.40;;;;;;1554334;74;1795;-57
2022/10/23 02:55:12;;;;;;;;;;;22.90;54.40;;;;;;1563346;74;662;-57
2022/10/23 02:57:24;;;;;;;;;;;22.90;54.40;;;;;;1551533;74;1063;-56
2022/10/23 02:59:29;;;;;;;;;;;22.90;54.40;;;;;;1565534;74;708;-57
2022/10/23 03:01:39;;;;;;;;;;;22.90;54.40;;;;;;1544565;74;738;-57
2022/10/23 03:03:48;;;;;;;;;;;22.90;54.40;;;;;;1559407;74;1828;-56
2022/10/23 03:05:50;;;;;;;;;;;22.90;54.40;;;;;;1552433;74;1948;-57
2022/10/23 03:07:52;;;;;;;;;;;22.90;54.40;;;;;;1566574;74;720;-57
2022/10/23 03:09:54;;;;;;;;;;;22.90;54.40;;;;;;1555833;74;795;-57
2022/10/23 03:11:56;;;;;;;;;;;23.00;54.30;;;;;;1556479;74;818;-56
2022/10/23 03:13:58;;;;;;;;;;;23.00;54.30;;;;;;1570345;74;816;-57
2022/10/23 03:16:00;;;;;;;;;;;23.00;54.30;;;;;;1562573;74;1142;-56
2022/10/23 03:18:02;;;;;;;;;;;23.00;54.30;;;;;;1563098;74;1661;-57
2022/10/23 03:20:04;;;;;;;;;;;23.00;54.20;;;;;;1558448;74;718;-55
2022/10/23 03:22:06;;;;;;;;;;;23.00;54.20;;;;;;1560092;74;735;-57
2022/10/23 03:24:08;;;;;;;;;;;23.00;54.20;;;;;;1556196;74;706;-57
2022/10/23 03:26:10;;;;;;;;;;;23.00;54.20;;;;;;1559441;74;1949;-54
2022/10/23 03:28:12;;;;;;;;;;;23.00;54.20;;;;;;1563695;74;777;-57
2022/10/23 03:30:14;;;;;;;;;;;23.00;54.20;;;;;;1554277;74;769;-56
2022/10/23 03:32:16;;;;;;;;;;;23.00;54.20;;;;;;1555153;74;1631;-56
2022/10/23 03:34:18;;;;;;;;;;;23.00;54.20;;;;;;1555176;74;925;-56
2022/10/23 03:36:20;;;;;;;;;;;23.00;54.10;;;;;;1552245;74;1087;-56
2022/10/23 03:38:22;;;;;;;;;;;23.00;54.20;;;;;;1556911;74;714;-56
2022/10/23 03:40:23;;;;;;;;;;;23.00;54.30;;;;;;1552392;74;714;-56
2022/10/23 03:42:25;;;;;;;;;;;22.90;54.40;;;;;;1556471;74;756;-53
2022/10/23 03:44:29;;;;;;;;;;;22.90;54.40;;;;;;1555321;74;770;-57
2022/10/23 03:46:31;;;;;;;;;;;22.80;54.40;;;;;;1554011;74;1950;-56
2022/10/23 03:48:33;;;;;;;;;;;22.90;54.60;;;;;;1558813;74;734;-56
2022/10/23 03:50:34;;;;;;;;;;;22.90;54.60;;;;;;1555470;74;711;-56
2022/10/23 03:52:36;;;;;;;;;;;22.80;54.60;;;;;;1554095;74;786;-54
2022/10/23 03:54:38;;;;;;;;;;;22.80;54.50;;;;;;1556915;75;778;-54
2022/10/23 03:56:40;;;;;;;;;;;22.90;54.60;;;;;;1553787;74;1182;-56
2022/10/23 03:58:42;;;;;;;;;;;22.90;54.60;;;;;;1552646;74;1505;-56
2022/10/23 04:00:44;;;;;;;;;;;22.80;54.50;;;;;;1554963;74;768;-56
2022/10/23 04:02:46;;;;;;;;;;;22.80;54.50;;;;;;1558551;74;729;-56
2022/10/23 04:04:48;;;;;;;;;;;22.80;54.50;;;;;;1557459;74;755;-56
2022/10/23 04:06:49;;;;;;;;;;;22.90;54.60;;;;;;1556492;74;1939;-55
2022/10/23 04:08:51;;;;;;;;;;;22.90;54.60;;;;;;1557745;74;752;-51
2022/10/23 04:10:54;;;;;;;;;;;22.80;54.40;;;;;;1554335;75;776;-52
2022/10/23 04:12:55;;;;;;;;;;;22.80;54.60;;;;;;1554710;75;1510;-56
2022/10/23 04:14:57;;;;;;;;;;;22.70;54.60;;;;;;1560887;74;803;-54
2022/10/23 04:16:59;;;;;;;;;;;22.70;54.70;;;;;;1557544;75;1120;-57
2022/10/23 04:19:01;;;;;;;;;;;22.80;54.60;;;;;;1557587;74;802;-56
2022/10/23 04:21:03;;;;;;;;;;;22.80;54.70;;;;;;1554439;74;768;-55
2022/10/23 04:23:05;;;;;;;;;;;22.80;54.60;;;;;;1560601;75;679;-55
2022/10/23 04:25:07;;;;;;;;;;;22.80;54.50;;;;;;1556538;74;746;-56
2022/10/23 04:27:09;;;;;;;;;;;22.80;54.60;;;;;;1551598;74;1949;-53
2022/10/23 04:29:11;;;;;;;;;;;22.80;54.60;;;;;;1556531;74;792;-56
2022/10/23 04:31:12;;;;;;;;;;;22.70;54.70;;;;;;1558149;75;663;-56
2022/10/23 04:33:14;;;;;;;;;;;22.80;54.70;;;;;;1553200;74;768;-56
2022/10/23 04:35:17;;;;;;;;;;;22.80;54.60;;;;;;1558165;74;715;-56
2022/10/23 04:37:18;;;;;;;;;;;22.70;54.70;;;;;;1555953;74;763;-57
2022/10/23 04:39:20;;;;;;;;;;;22.80;54.70;;;;;;1556952;75;753;-56
2022/10/23 04:41:22;;;;;;;;;;;22.80;54.70;;;;;;1554401;74;1548;-55
2022/10/23 04:43:24;;;;;;;;;;;22.70;54.50;;;;;;1551708;74;738;-53
2022/10/23 04:45:26;;;;;;;;;;;22.70;54.60;;;;;;1554925;75;1137;-53
2022/10/23 04:47:28;;;;;;;;;;;22.80;54.60;;;;;;1553997;75;1921;-56
2022/10/23 04:49:30;;;;;;;;;;;22.80;54.70;;;;;;1557406;74;851;-56
2022/10/23 04:51:32;;;;;;;;;;;22.90;54.70;;;;;;1556368;74;907;-56
2022/10/23 04:53:34;;;;;;;;;;;22.90;54.70;;;;;;1556968;74;726;-55
2022/10/23 04:55:35;;;;;;;;;;;22.90;54.70;;;;;;1556353;75;1550;-56
2022/10/23 04:57:37;;;;;;;;;;;22.70;54.60;;;;;;1555624;75;800;-54
2022/10/23 04:59:39;;;;;;;;;;;22.80;54.60;;;;;;1557120;74;836;-54
2022/10/23 05:01:41;;;;;;;;;;;22.90;54.60;;;;;;1558355;75;830;-56
2022/10/23 05:03:43;;;;;;;;;;;22.90;54.70;;;;;;1560079;74;705;-56
2022/10/23 05:05:45;;;;;;;;;;;22.90;54.70;;;;;;1558030;75;1137;-56
2022/10/23 05:07:47;;;;;;;;;;;22.90;54.60;;;;;;1562956;74;1927;-56
2022/10/23 05:09:49;;;;;;;;;;;22.90;54.50;;;;;;1551005;74;1514;-55
2022/10/23 05:11:50;;;;;;;;;;;22.90;54.50;;;;;;1556917;74;793;-55
2022/10/23 05:13:52;;;;;;;;;;;22.90;54.50;;;;;;1551615;74;785;-56
2022/10/23 05:15:54;;;;;;;;;;;22.90;54.50;;;;;;1553053;74;1142;-56
2022/10/23 05:17:58;;;;;;;;;;;22.80;54.50;;;;;;1534595;74;709;-56
2022/10/23 05:20:00;;;;;;;;;;;22.90;54.70;;;;;;1540534;74;1859;-56
2022/10/23 05:22:02;;;;;;;;;;;22.90;54.70;;;;;;1558116;74;681;-56
2022/10/23 05:24:04;;;;;;;;;;;22.70;54.60;;;;;;1546700;75;1514;-56
2022/10/23 05:26:06;;;;;;;;;;;22.70;54.70;;;;;;1552115;74;1164;-56
2022/10/23 05:28:08;;;;;;;;;;;22.70;54.70;;;;;;1558647;74;1940;-56
2022/10/23 05:30:10;;;;;;;;;;;22.80;54.70;;;;;;1560614;74;696;-54
2022/10/23 05:32:12;;;;;;;;;;;22.80;54.70;;;;;;1561224;74;726;-54
2022/10/23 05:34:14;;;;;;;;;;;22.80;54.70;;;;;;1565167;74;796;-56
2022/10/23 05:36:16;;;;;;;;;;;22.80;54.70;;;;;;1559253;74;1144;-54
2022/10/23 05:38:18;;;;;;;;;;;22.80;54.70;;;;;;1559069;74;1628;-57
2022/10/23 05:40:20;;;;;;;;;;;22.70;54.70;;;;;;1553566;74;737;-56
2022/10/23 05:42:22;;;;;;;;;;;22.80;54.70;;;;;;1550167;74;818;-57
2022/10/23 05:44:24;;;;;;;;;;;22.70;54.60;;;;;;1560634;74;706;-56
2022/10/23 05:46:26;;;;;;;;;;;22.70;54.60;;;;;;1561436;75;1960;-56
2022/10/23 05:48:28;;;;;;;;;;;22.80;54.60;;;;;;1553566;74;732;-56
2022/10/23 05:50:30;;;;;;;;;;;22.70;54.60;;;;;;1553648;74;780;-56
2022/10/23 05:52:32;;;;;;;;;;;22.90;54.70;;;;;;1560139;74;1577;-56
2022/10/23 05:54:34;;;;;;;;;;;22.80;54.60;;;;;;1560118;74;714;-55
2022/10/23 05:56:36;;;;;;;;;;;22.70;54.70;;;;;;1565138;74;1167;-53
2022/10/23 05:58:38;;;;;;;;;;;22.70;54.70;;;;;;1542806;76;816;-56
2022/10/23 06:00:40;;;;;;;;;;;22.70;54.70;;;;;;1556905;75;793;-53
2022/10/23 06:02:42;;;;;;;;;;;22.80;54.70;;;;;;1565513;74;729;-56
2022/10/23 06:04:44;;;;;;;;;;;22.70;54.60;;;;;;1564989;74;752;-57
2022/10/23 06:06:46;;;;;;;;;;;22.90;54.70;;;;;;1557391;74;1956;-56
2022/10/23 06:08:48;;;;;;;;;;;22.80;54.50;;;;;;1567080;74;678;-56
2022/10/23 06:10:50;;;;;;;;;;;22.80;54.50;;;;;;1560187;74;734;-56
2022/10/23 06:12:52;;;;;;;;;;;22.90;54.70;;;;;;1563764;74;731;-55
2022/10/23 06:14:53;;;;;;;;;;;22.70;54.60;;;;;;1560766;74;806;-54
2022/10/23 06:16:55;;;;;;;;;;;22.80;54.50;;;;;;1549347;74;1146;-55
2022/10/23 06:18:57;;;;;;;;;;;22.90;54.70;;;;;;1554635;74;732;-56
2022/10/23 06:21:00;;;;;;;;;;;22.80;54.50;;;;;;1555201;74;1463;-56
2022/10/23 06:23:02;;;;;;;;;;;22.80;54.50;;;;;;1557029;74;793;-56
2022/10/23 06:25:04;;;;;;;;;;;22.70;54.60;;;;;;1552395;74;740;-56
2022/10/23 06:27:06;;;;;;;;;;;22.70;54.50;;;;;;1555814;74;1929;-55
2022/10/23 06:29:08;;;;;;;;;;;22.70;54.60;;;;;;1562261;74;774;-56
2022/10/23 06:31:10;;;;;;;;;;;22.80;54.50;;;;;;1564391;74;795;-56
2022/10/23 06:33:12;;;;;;;;;;;22.80;54.60;;;;;;1558151;74;887;-56
2022/10/23 06:35:14;;;;;;;;;;;22.80;54.70;;;;;;1552822;74;1677;-56
2022/10/23 06:37:16;;;;;;;;;;;22.80;54.70;;;;;;1564458;74;1124;-57
2022/10/23 06:39:20;;;;;;;;;;;22.80;54.70;;;;;;1556402;74;679;-56
2022/10/23 06:41:22;;;;;;;;;;;22.70;54.70;;;;;;1555439;74;760;-56
2022/10/23 06:43:24;;;;;;;;;;;22.70;54.70;;;;;;1553167;75;755;-56
2022/10/23 06:45:26;;;;;;;;;;;22.80;54.70;;;;;;1547271;74;1152;-53
2022/10/23 06:47:28;;;;;;;;;;;22.80;54.70;;;;;;1556223;74;1952;-56
2022/10/23 06:49:29;;;;;;;;;;;22.70;54.70;;;;;;1554868;74;801;-55
2022/10/23 06:51:31;;;;;;;;;;;22.80;54.70;;;;;;1557354;74;730;-56
2022/10/23 06:53:34;;;;;;;;;;;22.80;54.70;;;;;;1558257;74;706;-52
2022/10/23 06:55:38;;;;;;;;;;;22.80;54.70;;;;;;1557642;76;1187;-57
2022/10/23 06:57:40;;;;;;;;;;;22.70;54.70;;;;;;1558483;74;1698;-56
2022/10/23 06:59:41;;;;;;;;;;;22.70;54.60;;;;;;1559586;74;733;-56
2022/10/23 07:01:43;;;;;;;;;;;22.70;54.60;;;;;;1547555;74;1519;-55
2022/10/23 07:03:45;;;;;;;;;;;22.80;54.50;;;;;;1567384;74;724;-54
2022/10/23 07:05:47;;;;;;;;;;;22.70;54.60;;;;;;1526856;76;1201;-56
2022/10/23 07:07:49;;;;;;;;;;;22.70;54.70;;;;;;1521607;76;1926;-57
2022/10/23 07:09:51;;;;;;;;;;;22.80;54.70;;;;;;1490611;78;693;-56
2022/10/23 07:11:53;;;;;;;;;;;22.80;54.70;;;;;;1494338;78;792;-56
2022/10/23 07:13:55;;;;;;;;;;;22.80;54.70;;;;;;1501152;77;779;-56
2022/10/23 07:15:57;;;;;;;;;;;22.80;54.70;;;;;;1522024;77;1520;-56
2022/10/23 07:17:59;;;;;;;;;;;22.70;54.60;;;;;;1523223;77;732;-56
2022/10/23 07:20:01;;;;;;;;;;;22.70;54.60;;;;;;1522787;76;768;-56
2022/10/23 07:22:03;;;;;;;;;;;22.80;54.70;;;;;;1518790;76;730;-54
2022/10/23 07:24:05;;;;;;;;;;;22.80;54.70;;;;;;1522835;76;755;-53
2022/10/23 07:26:13;;;;;;;;;;;22.80;54.70;;;;;;1524368;76;1183;-56
2022/10/23 07:28:15;;;;;;;;;;;22.80;54.70;;;;;;1523861;76;1902;-56
2022/10/23 07:30:16;;;;;;;;;;;22.70;54.70;;;;;;1524219;76;1576;-56
2022/10/23 07:32:18;;;;;;;;;;;22.70;54.70;;;;;;1519949;76;852;-56
2022/10/23 07:34:20;;;;;;;;;;;22.70;54.80;;;;;;1522217;76;725;-56
2022/10/23 07:36:22;;;;;;;;;;;22.70;54.80;;;;;;1527672;76;1263;-57
2022/10/23 07:38:24;;;;;;;;;;;22.70;54.80;;;;;;1520087;77;739;-56
2022/10/23 07:40:26;;;;;;;;;;;22.80;54.80;;;;;;1523018;76;746;-54
2022/10/23 07:42:28;;;;;;;;;;;22.80;54.70;;;;;;1522644;76;817;-56
2022/10/23 07:44:30;;;;;;;;;;;22.70;54.70;;;;;;1524953;76;1532;-55
2022/10/23 07:46:32;;;;;;;;;;;22.70;54.80;;;;;;1529887;77;1142;-56
2022/10/23 07:48:33;;;;;;;;;;;22.70;54.90;;;;;;1526967;76;1947;-56
2022/10/23 07:50:37;;;;;;;;;;;22.70;54.90;;;;;;1523780;77;734;-56
2022/10/23 07:52:39;;;;;;;;;;;22.70;54.80;;;;;;1519075;77;745;-57
2022/10/23 07:54:40;;;;;;;;;;;22.70;54.90;;;;;;1527736;76;770;-57
2022/10/23 07:56:42;;;;;;;;;;;22.60;54.80;;;;;;1525348;76;1165;-56
2022/10/23 07:58:44;;;;;;;;;;;22.60;54.80;;;;;;1532409;76;1550;-56
2022/10/23 08:00:51;;;;;;;;;;;22.70;54.80;;;;;;1525992;77;683;-56
2022/10/23 08:02:50;;;;;;;;;;;22.80;54.70;;;;;;1527509;76;1449;-54
2022/10/23 08:04:52;;;;;;;;;;;22.80;54.70;;;;;;1531991;76;749;-52
2022/10/23 08:06:55;;;;;;;;;;;22.70;54.70;;;;;;1525548;76;1116;-56
2022/10/23 08:08:57;;;;;;;;;;;22.80;54.70;;;;;;1528782;76;1907;-56
2022/10/23 08:10:58;;;;;;;;;;;22.80;54.60;;;;;;1521483;77;733;-56
2022/10/23 08:13:00;;;;;;;;;;;22.80;54.60;;;;;;1519899;76;1194;-53
2022/10/23 08:15:03;;;;;;;;;;;22.80;54.50;;;;;;1522880;76;744;-56
2022/10/23 08:17:08;;;;;;;;;;;22.80;54.50;;;;;;1522740;76;1191;-55
2022/10/23 08:19:10;;;;;;;;;;;22.90;54.70;;;;;;1524054;77;1661;-57
2022/10/23 08:21:12;;;;;;;;;;;22.80;54.50;;;;;;1519964;77;1164;-56
2022/10/23 08:23:15;;;;;;;;;;;22.90;54.70;;;;;;1524316;76;863;-56
2022/10/23 08:25:17;;;;;;;;;;;22.80;54.60;;;;;;1524027;76;692;-56
2022/10/23 08:27:19;;;;;;;;;;;22.70;54.60;;;;;;1522875;76;1568;-56
2022/10/23 08:29:21;;;;;;;;;;;22.80;54.60;;;;;;1527818;77;1931;-57
2022/10/23 08:31:23;;;;;;;;;;;22.80;54.60;;;;;;1525570;76;736;-57
2022/10/23 08:33:25;;;;;;;;;;;22.80;54.60;;;;;;1522427;76;737;-56
2022/10/23 08:35:27;;;;;;;;;;;22.70;54.60;;;;;;1531910;76;1126;-56
2022/10/23 08:37:28;;;;;;;;;;;22.80;54.70;;;;;;1513319;76;704;-54
2022/10/23 08:39:30;;;;;;;;;;;22.80;54.70;;;;;;1514241;76;801;-56
2022/10/23 08:41:40;;;;;;;;;;;22.80;54.70;;;;;;1513680;76;1531;-57
2022/10/23 08:43:43;;;;;;;;;;;22.70;54.70;;;;;;1520688;76;721;-56
2022/10/23 08:45:47;;;;;;;;;;;22.90;54.90;;;;;;1518069;76;1142;-55
2022/10/23 08:47:49;;;;;;;;;;;22.80;54.80;;;;;;1508788;76;1943;-56
2022/10/23 08:49:53;;;;;;;;;;;22.70;54.90;;;;;;1515240;77;819;-54
2022/10/23 08:51:55;;;;;;;;;;;22.80;54.90;;;;;;1498045;77;688;-56
2022/10/23 08:54:04;;;;;;;;;;;22.90;54.90;;;;;;1503063;77;1519;-56
2022/10/23 08:56:08;;;;;;;;;;;22.80;54.70;;;;;;1502063;77;1584;-53
2022/10/23 08:58:14;;;;;;;;;;;22.80;54.70;;;;;;1496430;77;757;-56
2022/10/23 09:00:15;;;;;;;;;;;22.80;54.70;;;;;;1500819;77;1551;-56
2022/10/23 09:02:19;;;;;;;;;;;22.90;54.80;;;;;;1499954;77;800;-56
2022/10/23 09:04:21;;;;;;;;;;;22.90;54.70;;;;;;1502678;77;1805;-56
2022/10/23 09:06:33;;;;;;;;;;;22.80;54.20;;;;;;1503007;77;1144;-56
2022/10/23 09:08:47;;;;;;;;;;;22.80;54.00;;;;;;1497840;77;1979;-54
2022/10/23 09:11:06;;;;;;;;;;;22.60;53.80;;;;;;1506722;78;739;-56
2022/10/23 09:13:12;;;;;;;;;;;22.60;53.70;;;;;;1494098;77;704;-55
2022/10/23 09:15:22;;;;;;;;;;;22.50;53.60;;;;;;1498656;77;688;-56
2022/10/23 09:17:25;;;;;;;;;;;22.50;53.30;;;;;;1504003;77;798;-55
2022/10/23 09:19:29;;;;;;;;;;;22.50;53.40;;;;;;1513040;77;736;-56
2022/10/23 09:21:31;;;;;;;;;;;22.50;53.50;;;;;;1501766;77;748;-55
2022/10/23 09:23:33;;;;;;;;;;;22.50;53.60;;;;;;1503906;77;1595;-55
2022/10/23 09:25:37;;;;;;;;;;;22.40;53.50;;;;;;1494871;77;1149;-56
2022/10/23 09:27:39;;;;;;;;;;;22.50;53.70;;;;;;1506258;77;1664;-54
2022/10/23 09:29:43;;;;;;;;;;;22.50;53.60;;;;;;1487075;78;1927;-55
2022/10/23 09:31:51;;;;;;;;;;;22.50;53.60;;;;;;1495219;78;2009;-55
2022/10/23 09:33:54;;;;;;;;;;;22.50;53.60;;;;;;1501817;77;726;-53
2022/10/23 09:35:59;;;;;;;;;;;22.50;53.50;;;;;;1503517;77;1242;-56
2022/10/23 09:38:01;;;;;;;;;;;22.50;53.50;;;;;;1501391;77;1522;-54
2022/10/23 09:40:17;;;;;;;;;;;22.50;53.40;;;;;;1503014;77;762;-56
2022/10/23 09:42:22;;;;;;;;;;;22.60;53.40;;;;;;1502108;77;1852;-56
2022/10/23 09:44:25;;;;;;;;;;;22.60;53.40;;;;;;1503520;77;751;-56
2022/10/23 09:46:29;;;;;;;;;;;22.60;53.10;;;;;;1503856;77;1151;-56
2022/10/23 09:48:31;;;;;;;;;;;22.60;53.20;;;;;;1502609;77;1935;-56
2022/10/23 09:50:33;;;;;;;;;;;22.70;53.20;;;;;;1503843;77;1540;-56
2022/10/23 09:52:37;;;;;;;;;;;22.70;53.10;;;;;;1501252;77;844;-55
2022/10/23 09:54:41;;;;;;;;;;;22.70;53.10;;;;;;1501616;77;773;-54
2022/10/23 09:56:44;;;;;;;;;;;22.70;53.10;;;;;;1500985;77;1183;-54
2022/10/23 09:58:48;;;;;;;;;;;22.80;53.10;;;;;;1501705;77;1733;-56
2022/10/23 10:00:50;;;;;;;;;;;22.70;53.10;;;;;;1502225;77;1922;-56
2022/10/23 10:02:58;;;;;;;;;;;22.70;53.00;;;;;;1499635;78;728;-54
2022/10/23 10:05:02;;;;;;;;;;;22.80;52.90;;;;;;1499963;77;1543;-56
2022/10/23 10:07:05;;;;;;;;;;;22.80;52.90;;;;;;1500253;77;1896;-55
2022/10/23 10:09:13;;;;;;;;;;;22.80;52.80;;;;;;1497610;77;1915;-56
2022/10/23 10:11:17;;;;;;;;;;;22.80;52.80;;;;;;1498943;78;761;-56
2022/10/23 10:13:20;;;;;;;;;;;22.80;52.70;;;;;;1501558;77;739;-56
2022/10/23 10:15:24;;;;;;;;;;;22.80;52.60;;;;;;1503432;77;1148;-55
2022/10/23 10:17:44;;;;;;;;;;;22.80;52.40;;;;;;1502072;77;1661;-56
2022/10/23 10:20:04;;;;;;;;;;;22.80;52.40;;;;;;1504226;78;1315;-56
2022/10/23 10:22:08;;;;;;;;;;;22.80;52.30;;;;;;1502437;77;767;-56
2022/10/23 10:24:23;;;;;;;;;;;22.80;52.40;;;;;;1496919;77;1881;-57
2022/10/23 10:26:27;;;;;;;;;;;22.90;52.50;;;;;;1496766;77;1964;-56
2022/10/23 10:28:40;;;;;;;;;;;22.80;52.50;;;;;;1498880;77;1932;-56
2022/10/23 10:30:43;;;;;;;;;;;22.80;52.20;;;;;;1495727;77;1896;-56
2022/10/23 10:32:50;;;;;;;;;;;22.80;52.20;;;;;;1495633;77;1898;-56
2022/10/23 10:34:55;;;;;;;;;;;22.80;52.10;;;;;;1500206;77;741;-56
2022/10/23 10:36:57;;;;;;;;;;;22.80;52.00;;;;;;1512864;77;1098;-57
2022/10/23 10:39:01;;;;;;;;;;;22.80;51.90;;;;;;1505281;77;807;-56
2022/10/23 10:41:04;;;;;;;;;;;22.80;52.00;;;;;;1500892;77;901;-56
2022/10/23 10:43:26;;;;;;;;;;;22.80;51.80;;;;;;1499825;78;1460;-55
2022/10/23 10:45:32;;;;;;;;;;;22.80;51.90;;;;;;1503419;77;1154;-55
2022/10/23 10:47:51;;;;;;;;;;;22.70;51.90;;;;;;1501857;77;1565;-55
2022/10/23 10:50:00;;;;;;;;;;;22.70;52.10;;;;;;1507025;77;1945;-55
2022/10/23 10:52:20;;;;;;;;;;;22.70;52.10;;;;;;1505903;77;2164;-55
2022/10/23 10:54:40;;;;;;;;;;;22.70;52.10;;;;;;1504218;78;680;-56
2022/10/23 10:56:43;;;;;;;;;;;22.60;52.10;;;;;;1505472;77;1144;-56
2022/10/23 10:58:49;;;;;;;;;;;22.60;52.10;;;;;;1499856;77;744;-56
2022/10/23 11:00:52;;;;;;;;;;;22.60;52.10;;;;;;1490687;77;1794;-56
2022/10/23 11:03:01;;;;;;;;;;;22.60;52.10;;;;;;1505219;77;714;-56
2022/10/23 11:05:20;;;;;;;;;;;22.60;52.10;;;;;;1506693;77;778;-56
2022/10/23 11:07:23;;;;;;;;;;;22.50;52.10;;;;;;1500712;77;1902;-55
2022/10/23 11:09:26;;;;;;;;;;;22.50;52.10;;;;;;1505266;77;1939;-56
2022/10/23 11:11:30;;;;;;;;;;;22.60;52.20;;;;;;1503424;77;951;-56
2022/10/23 11:13:33;;;;;;;;;;;22.60;52.20;;;;;;1505426;77;719;-56
2022/10/23 11:15:37;;;;;;;;;;;22.60;52.20;;;;;;1501797;78;1580;-56
2022/10/23 11:17:39;;;;;;;;;;;22.60;52.10;;;;;;1505620;77;825;-56
2022/10/23 11:19:43;;;;;;;;;;;22.50;52.10;;;;;;1509468;77;742;-56
2022/10/23 11:21:46;;;;;;;;;;;22.50;52.10;;;;;;1512449;77;750;-56
2022/10/23 11:23:50;;;;;;;;;;;22.50;52.10;;;;;;1513939;77;692;-56
2022/10/23 11:26:11;;;;;;;;;;;22.50;52.10;;;;;;1510197;78;1904;-55
2022/10/23 11:28:21;;;;;;;;;;;22.50;52.10;;;;;;1510398;77;743;-56
2022/10/23 11:30:23;;;;;;;;;;;22.50;52.20;;;;;;1513944;77;1567;-56
2022/10/23 11:32:30;;;;;;;;;;;22.50;52.20;;;;;;1515305;77;783;-55
2022/10/23 11:34:42;;;;;;;;;;;22.50;52.20;;;;;;1517808;77;1908;-56
2022/10/23 11:36:52;;;;;;;;;;;22.50;52.20;;;;;;1506187;77;1136;-56
2022/10/23 11:38:58;;;;;;;;;;;22.50;52.00;;;;;;1514583;77;785;-57
2022/10/23 11:40:59;;;;;;;;;;;22.60;52.00;;;;;;1510988;77;1973;-57
2022/10/23 11:43:00;;;;;;;;;;;22.70;52.00;;;;;;1512656;78;1497;-57
2022/10/23 11:45:02;;;;;;;;;;;22.80;51.70;;;;;;1515797;77;738;-57
2022/10/23 11:47:05;;;;;;;;;;;22.90;51.70;;;;;;1512744;77;1119;-56
2022/10/23 11:49:09;;;;;;;;;;;22.90;51.50;;;;;;1514861;77;1942;-55
2022/10/23 11:51:26;;;;;;;;;;;23.00;51.40;;;;;;1508641;77;1825;-56
2022/10/23 11:53:33;;;;;;;;;;;23.00;51.30;;;;;;1510814;77;736;-57
2022/10/23 11:55:35;;;;;;;;;;;23.10;51.40;;;;;;1514758;77;1112;-57
2022/10/23 11:57:36;;;;;;;;;;;23.10;51.30;;;;;;1513673;78;1556;-57
2022/10/23 11:59:46;;;;;;;;;;;23.20;51.20;;;;;;1510489;77;724;-57
2022/10/23 12:01:48;;;;;;;;;;;23.20;51.20;;;;;;1521354;77;721;-58
2022/10/23 12:03:54;;;;;;;;;;;23.20;51.20;;;;;;1514237;77;680;-57
2022/10/23 12:05:57;;;;;;;;;;;23.30;51.20;;;;;;1514641;77;1178;-57
2022/10/23 12:07:59;;;;;;;;;;;23.20;51.00;;;;;;1514920;77;711;-55
2022/10/23 12:10:05;;;;;;;;;;;23.10;51.20;;;;;;1514620;77;1925;-57
2022/10/23 12:12:08;;;;;;;;;;;23.10;51.30;;;;;;1508412;77;1544;-54
2022/10/23 12:14:26;;;;;;;;;;;23.10;51.50;;;;;;1514808;77;793;-57
2022/10/23 12:16:34;;;;;;;;;;;23.10;51.80;;;;;;1515757;77;1157;-57